createdAt,value
2018-12-19T00:02:26.629Z,9.30
2018-12-19T00:04:59.112Z,9.30
2018-12-19T00:07:31.561Z,9.30
2018-12-19T00:10:01.894Z,9.20
2018-12-19T00:12:32.180Z,9.20
2018-12-19T00:15:02.619Z,9.20
2018-12-19T00:17:35.065Z,9.20
2018-12-19T00:20:06.162Z,9.20
2018-12-19T00:22:36.466Z,9.20
2018-12-19T00:25:07.138Z,9.10
2018-12-19T00:27:39.897Z,9.20
2018-12-19T00:30:12.332Z,9.10
2018-12-19T00:32:44.917Z,9.10
2018-12-19T00:35:17.294Z,9.10
2018-12-19T00:37:47.613Z,9.10
2018-12-19T00:40:18.055Z,9.10
2018-12-19T00:42:48.513Z,9.10
2018-12-19T00:45:18.883Z,9.00
2018-12-19T00:47:49.275Z,9.00
2018-12-19T00:50:19.634Z,9.00
2018-12-19T00:52:50.015Z,9.00
2018-12-19T00:55:20.424Z,8.90
2018-12-19T00:57:50.934Z,8.90
2018-12-19T01:00:21.248Z,8.90
2018-12-19T01:02:51.598Z,8.90
2018-12-19T01:05:21.992Z,8.90
2018-12-19T01:07:52.466Z,8.90
2018-12-19T01:10:23.104Z,8.90
2018-12-19T01:12:53.767Z,8.80
2018-12-19T01:15:24.343Z,8.80
2018-12-19T01:17:54.855Z,8.80
2018-12-19T01:20:25.970Z,8.80
2018-12-19T01:22:56.363Z,8.80
2018-12-19T01:25:26.842Z,8.80
2018-12-19T01:27:57.503Z,8.80
2018-12-19T01:30:27.911Z,8.70
2018-12-19T01:32:59.366Z,8.70
2018-12-19T01:35:29.870Z,8.70
2018-12-19T01:38:00.262Z,8.70
2018-12-19T01:40:30.678Z,8.70
2018-12-19T01:43:00.989Z,8.60
2018-12-19T01:45:31.338Z,8.70
2018-12-19T01:48:01.622Z,8.60
2018-12-19T01:50:31.982Z,8.60
2018-12-19T01:53:02.335Z,8.60
2018-12-19T01:55:33.803Z,8.60
2018-12-19T01:58:04.151Z,8.60
2018-12-19T02:00:34.900Z,8.50
2018-12-19T02:03:05.471Z,8.50
2018-12-19T02:05:35.915Z,8.50
2018-12-19T02:08:06.133Z,8.50
2018-12-19T02:10:36.486Z,8.40
2018-12-19T02:13:06.990Z,8.40
2018-12-19T02:15:37.382Z,8.40
2018-12-19T02:18:07.712Z,8.40
2018-12-19T02:20:38.059Z,8.40
2018-12-19T02:23:08.407Z,8.40
2018-12-19T02:25:38.755Z,8.30
2018-12-19T02:28:09.277Z,8.40
2018-12-19T02:30:39.590Z,8.40
2018-12-19T02:33:09.924Z,8.40
2018-12-19T02:35:40.381Z,8.30
2018-12-19T02:38:10.702Z,8.30
2018-12-19T02:40:41.156Z,8.40
2018-12-19T02:43:11.445Z,8.30
2018-12-19T02:45:41.794Z,8.30
2018-12-19T02:48:12.074Z,8.30
2018-12-19T02:50:42.489Z,8.30
2018-12-19T02:53:12.778Z,8.30
2018-12-19T02:55:43.102Z,8.30
2018-12-19T02:58:13.397Z,8.30
2018-12-19T03:00:44.436Z,8.30
2018-12-19T03:03:14.775Z,8.30
2018-12-19T03:05:45.106Z,8.30
2018-12-19T03:08:15.407Z,8.40
2018-12-19T03:10:46.546Z,8.30
2018-12-19T03:13:16.838Z,8.40
2018-12-19T03:15:47.712Z,8.40
2018-12-19T03:18:18.018Z,8.40
2018-12-19T03:20:48.396Z,8.40
2018-12-19T03:23:18.693Z,8.30
2018-12-19T03:25:49.499Z,8.30
2018-12-19T03:28:19.814Z,8.30
2018-12-19T03:30:50.134Z,8.20
2018-12-19T03:33:22.559Z,8.30
2018-12-19T03:35:52.978Z,8.20
2018-12-19T03:38:24.344Z,8.10
2018-12-19T03:40:54.889Z,8.10
2018-12-19T03:43:25.134Z,8.20
2018-12-19T03:45:55.562Z,8.20
2018-12-19T03:48:31.105Z,8.10
2018-12-19T03:51:01.635Z,8.20
2018-12-19T03:53:32.353Z,8.10
2018-12-19T03:56:02.698Z,8.10
2018-12-19T03:58:33.091Z,8.00
2018-12-19T04:01:03.364Z,8.00
2018-12-19T04:03:33.805Z,8.10
2018-12-19T04:06:04.087Z,7.90
2018-12-19T04:08:34.437Z,7.90
2018-12-19T04:11:04.947Z,8.00
2018-12-19T04:13:35.284Z,7.90
2018-12-19T04:16:05.653Z,8.00
2018-12-19T04:18:36.063Z,7.90
2018-12-19T04:21:06.446Z,7.90
2018-12-19T04:23:36.817Z,7.90
2018-12-19T04:26:07.158Z,7.90
2018-12-19T04:28:37.581Z,7.90
2018-12-19T04:31:08.142Z,7.80
2018-12-19T04:33:38.544Z,7.90
2018-12-19T04:36:08.963Z,7.90
2018-12-19T04:38:39.692Z,7.90
2018-12-19T04:41:10.114Z,7.90
2018-12-19T04:43:40.672Z,7.80
2018-12-19T04:46:11.403Z,7.80
2018-12-19T04:48:42.898Z,7.70
2018-12-19T04:51:13.315Z,7.70
2018-12-19T04:53:43.695Z,7.70
2018-12-19T04:56:13.999Z,7.70
2018-12-19T04:58:44.506Z,7.60
2018-12-19T05:01:14.867Z,7.60
2018-12-19T05:03:45.255Z,7.50
2018-12-19T05:06:15.589Z,7.40
2018-12-19T05:08:46.024Z,7.40
2018-12-19T05:11:16.298Z,7.40
2018-12-19T05:13:46.686Z,7.30
2018-12-19T05:16:17.243Z,7.30
2018-12-19T05:18:47.571Z,7.20
2018-12-19T05:21:18.019Z,7.20
2018-12-19T05:23:54.806Z,7.20
2018-12-19T05:26:25.146Z,7.20
2018-12-19T05:28:55.485Z,7.20
2018-12-19T05:31:25.858Z,7.10
2018-12-19T05:33:56.203Z,7.10
2018-12-19T05:36:26.596Z,7.00
2018-12-19T05:38:57.067Z,7.00
2018-12-19T05:41:27.436Z,6.90
2018-12-19T05:43:57.765Z,7.00
2018-12-19T05:46:28.493Z,6.90
2018-12-19T05:48:58.895Z,7.00
2018-12-19T05:51:29.314Z,6.90
2018-12-19T05:53:59.735Z,6.80
2018-12-19T05:56:30.162Z,6.90
2018-12-19T05:59:00.789Z,6.80
2018-12-19T06:01:31.360Z,6.90
2018-12-19T06:04:03.892Z,6.90
2018-12-19T06:06:34.316Z,7.00
2018-12-19T06:09:05.886Z,7.00
2018-12-19T06:11:36.529Z,7.00
2018-12-19T06:14:06.992Z,7.00
2018-12-19T06:16:37.594Z,6.90
2018-12-19T06:19:08.045Z,7.00
2018-12-19T06:21:38.494Z,7.00
2018-12-19T06:24:09.418Z,7.00
2018-12-19T06:26:39.836Z,7.00
2018-12-19T06:29:10.244Z,7.00
2018-12-19T06:31:40.643Z,7.00
2018-12-19T06:34:10.952Z,6.90
2018-12-19T06:36:41.353Z,7.00
2018-12-19T06:39:11.958Z,7.00
2018-12-19T06:41:42.321Z,7.00
2018-12-19T06:44:13.840Z,7.10
2018-12-19T06:46:44.213Z,7.10
2018-12-19T06:49:14.565Z,7.10
2018-12-19T06:51:45.167Z,7.20
2018-12-19T06:54:15.641Z,7.10
2018-12-19T06:56:46.031Z,7.20
2018-12-19T06:59:16.433Z,7.20
2018-12-19T07:01:46.836Z,7.20
2018-12-19T07:04:17.233Z,7.20
2018-12-19T07:06:47.614Z,7.10
2018-12-19T07:09:18.557Z,7.20
2018-12-19T07:11:49.001Z,7.10
2018-12-19T07:14:19.404Z,7.10
2018-12-19T07:16:50.100Z,7.10
2018-12-19T07:19:20.616Z,7.00
2018-12-19T07:21:51.347Z,7.00
2018-12-19T07:24:21.893Z,6.80
2018-12-19T07:26:52.453Z,6.80
2018-12-19T07:29:22.839Z,6.80
2018-12-19T07:31:53.206Z,6.70
2018-12-19T07:34:23.923Z,6.60
2018-12-19T07:36:54.452Z,6.70
2018-12-19T07:39:24.833Z,6.70
2018-12-19T07:41:55.166Z,6.80
2018-12-19T07:44:25.544Z,6.80
2018-12-19T07:46:55.953Z,6.70
2018-12-19T07:49:26.587Z,6.80
2018-12-19T07:51:56.889Z,6.80
2018-12-19T07:54:27.287Z,6.90
2018-12-19T07:56:58.650Z,7.00
2018-12-19T07:59:29.176Z,7.00
2018-12-19T08:01:59.586Z,7.10
2018-12-19T08:04:30.085Z,7.10
2018-12-19T08:07:00.620Z,7.10
2018-12-19T08:09:31.170Z,7.20
2018-12-19T08:12:01.641Z,7.30
2018-12-19T08:14:32.267Z,7.30
2018-12-19T08:17:02.754Z,7.40
2018-12-19T08:19:33.120Z,7.50
2018-12-19T08:22:04.015Z,7.40
2018-12-19T08:24:34.626Z,7.50
2018-12-19T08:27:05.322Z,7.50
2018-12-19T08:29:35.797Z,7.60
2018-12-19T08:32:06.210Z,7.60
2018-12-19T08:34:36.850Z,7.60
2018-12-19T08:37:07.379Z,7.60
2018-12-19T08:39:37.885Z,7.60
2018-12-19T08:42:08.256Z,7.60
2018-12-19T08:44:38.637Z,7.70
2018-12-19T08:47:09.218Z,7.70
2018-12-19T08:49:39.626Z,7.70
2018-12-19T08:52:10.022Z,7.70
2018-12-19T08:54:40.415Z,7.70
2018-12-19T08:57:10.781Z,7.80
2018-12-19T08:59:41.121Z,7.80
2018-12-19T09:02:12.098Z,7.90
2018-12-19T09:04:42.565Z,8.00
2018-12-19T09:07:13.088Z,8.00
2018-12-19T09:09:43.481Z,8.00
2018-12-19T09:12:13.836Z,7.90
2018-12-19T09:14:44.268Z,8.00
2018-12-19T09:17:14.977Z,8.10
2018-12-19T09:19:45.652Z,8.20
2018-12-19T09:22:16.568Z,8.10
2018-12-19T09:24:47.013Z,7.90
2018-12-19T09:27:17.443Z,7.80
2018-12-19T09:29:48.002Z,7.60
2018-12-19T09:32:18.345Z,7.50
2018-12-19T09:34:48.690Z,7.50
2018-12-19T09:37:19.050Z,7.60
2018-12-19T09:39:49.698Z,7.70
2018-12-19T09:42:20.066Z,7.70
2018-12-19T09:44:50.452Z,7.50
2018-12-19T09:47:21.212Z,7.50
2018-12-19T09:49:51.625Z,7.60
2018-12-19T09:52:22.262Z,7.50
2018-12-19T09:54:52.781Z,7.40
2018-12-19T09:57:23.322Z,7.10
2018-12-19T09:59:53.734Z,7.10
2018-12-19T10:02:24.572Z,7.20
2018-12-19T10:04:55.106Z,7.10
2018-12-19T10:07:25.613Z,7.10
2018-12-19T10:09:55.965Z,7.00
2018-12-19T10:12:26.460Z,6.90
2018-12-19T10:14:56.952Z,6.80
2018-12-19T10:17:27.365Z,6.70
2018-12-19T10:19:57.711Z,6.80
2018-12-19T10:22:32.284Z,6.80
2018-12-19T10:25:08.232Z,6.70
2018-12-19T10:27:38.821Z,6.70
2018-12-19T10:30:12.154Z,6.60
2018-12-19T10:32:42.823Z,6.60
2018-12-19T10:35:13.627Z,6.70
2018-12-19T10:37:44.035Z,6.80
2018-12-19T10:40:14.680Z,6.80
2018-12-19T10:42:45.227Z,6.70
2018-12-19T10:45:15.628Z,6.70
2018-12-19T10:47:46.355Z,6.70
2018-12-19T10:50:16.708Z,6.70
2018-12-19T10:52:47.069Z,6.70
2018-12-19T10:55:17.366Z,6.50
2018-12-19T10:57:47.792Z,6.50
2018-12-19T11:00:56.393Z,6.60
2018-12-19T11:03:26.712Z,6.60
2018-12-19T11:05:56.997Z,6.50
2018-12-19T11:08:27.527Z,6.50
2018-12-19T11:10:57.893Z,6.50
2018-12-19T11:13:28.348Z,6.50
2018-12-19T11:15:58.795Z,6.50
2018-12-19T11:18:29.300Z,6.50
2018-12-19T11:20:59.953Z,6.70
2018-12-19T11:23:30.350Z,6.50
2018-12-19T11:26:00.737Z,6.70
2018-12-19T11:28:31.317Z,6.80
2018-12-19T11:31:01.790Z,6.50
2018-12-19T11:33:32.675Z,6.50
2018-12-19T11:36:03.107Z,6.50
2018-12-19T11:38:33.481Z,6.60
2018-12-19T11:41:04.015Z,6.50
2018-12-19T11:43:34.331Z,6.40
2018-12-19T11:46:04.779Z,6.50
2018-12-19T11:48:35.118Z,6.30
2018-12-19T11:51:05.825Z,6.30
2018-12-19T11:53:36.230Z,6.30
2018-12-19T11:56:06.940Z,6.30
2018-12-19T11:58:37.659Z,6.40
2018-12-19T12:01:08.256Z,6.30
2018-12-19T12:03:38.646Z,6.40
2018-12-19T12:06:11.198Z,6.30
2018-12-19T12:08:41.757Z,6.20
2018-12-19T12:11:12.159Z,6.00
2018-12-19T12:13:42.695Z,5.90
2018-12-19T12:16:13.230Z,5.90
2018-12-19T12:18:44.037Z,6.00
2018-12-19T12:21:14.676Z,5.80
2018-12-19T12:23:47.437Z,5.90
2018-12-19T12:26:17.613Z,5.80
2018-12-19T12:28:47.988Z,5.80
2018-12-19T12:31:18.493Z,5.80
2018-12-19T12:33:50.775Z,5.80
2018-12-19T12:36:21.359Z,5.80
2018-12-19T12:38:51.965Z,6.00
2018-12-19T12:41:22.398Z,5.80
2018-12-19T12:43:52.791Z,5.70
2018-12-19T12:46:25.821Z,5.80
2018-12-19T12:48:56.768Z,5.80
2018-12-19T12:51:27.281Z,5.80
2018-12-19T12:53:57.739Z,5.80
2018-12-19T12:56:28.198Z,5.80
2018-12-19T12:58:58.583Z,5.80
2018-12-19T13:01:28.939Z,5.90
2018-12-19T13:03:59.427Z,5.80
2018-12-19T13:06:29.847Z,5.80
2018-12-19T13:09:00.497Z,5.80
2018-12-19T13:11:31.032Z,5.70
2018-12-19T13:14:01.527Z,5.80
2018-12-19T13:16:32.093Z,5.70
2018-12-19T13:19:02.643Z,5.70
2018-12-19T13:21:33.778Z,5.60
2018-12-19T13:24:04.631Z,5.60
2018-12-19T13:26:35.365Z,5.50
2018-12-19T13:29:05.966Z,5.50
2018-12-19T13:31:36.555Z,5.50
2018-12-19T13:34:07.161Z,5.60
2018-12-19T13:36:37.818Z,5.50
2018-12-19T13:39:09.331Z,5.50
2018-12-19T13:41:40.342Z,5.50
2018-12-19T13:44:11.112Z,5.50
2018-12-19T13:46:41.919Z,5.60
2018-12-19T13:49:13.524Z,5.60
2018-12-19T13:51:43.936Z,5.50
2018-12-19T13:54:14.521Z,5.60
2018-12-19T13:56:45.107Z,5.60
2018-12-19T13:59:15.454Z,5.90
2018-12-19T14:01:45.990Z,5.60
2018-12-19T14:04:16.436Z,5.60
2018-12-19T14:06:47.001Z,5.60
2018-12-19T14:09:17.361Z,5.50
2018-12-19T14:11:47.860Z,5.50
2018-12-19T14:14:18.466Z,5.40
2018-12-19T14:16:49.010Z,5.40
2018-12-19T14:19:19.622Z,5.50
2018-12-19T14:21:50.284Z,5.50
2018-12-19T14:24:21.319Z,5.40
2018-12-19T14:26:52.253Z,5.40
2018-12-19T14:29:22.818Z,5.40
2018-12-19T14:31:53.553Z,5.30
2018-12-19T14:34:24.357Z,5.40
2018-12-19T14:36:54.919Z,5.30
2018-12-19T14:39:25.643Z,5.40
2018-12-19T14:41:56.195Z,5.30
2018-12-19T14:44:26.702Z,5.40
2018-12-19T14:46:57.180Z,5.30
2018-12-19T14:49:27.664Z,5.40
2018-12-19T14:51:58.508Z,5.30
2018-12-19T14:54:29.158Z,5.30
2018-12-19T14:56:59.651Z,5.30
2018-12-19T14:59:30.137Z,5.30
2018-12-19T15:02:00.768Z,5.30
2018-12-19T15:04:32.656Z,5.30
2018-12-19T15:07:04.599Z,5.30
2018-12-19T15:09:35.139Z,5.30
2018-12-19T15:12:05.676Z,5.20
2018-12-19T15:14:39.210Z,5.30
2018-12-19T15:17:13.898Z,5.30
2018-12-19T15:19:46.491Z,5.30
2018-12-19T15:22:20.196Z,5.20
2018-12-19T15:24:53.780Z,5.20
2018-12-19T15:27:24.768Z,5.30
2018-12-19T15:29:55.346Z,5.30
2018-12-19T15:32:29.606Z,5.30
2018-12-19T15:35:00.813Z,5.30
2018-12-19T15:37:31.568Z,5.20
2018-12-19T15:40:02.134Z,5.30
2018-12-19T15:42:33.337Z,5.20
2018-12-19T15:45:04.078Z,5.20
2018-12-19T15:47:34.957Z,5.30
2018-12-19T15:50:06.513Z,5.20
2018-12-19T15:52:37.192Z,5.30
2018-12-19T15:55:08.149Z,5.30
2018-12-19T15:57:38.975Z,5.20
2018-12-19T16:00:14.237Z,5.10
2018-12-19T16:02:45.037Z,5.20
2018-12-19T16:05:15.652Z,5.20
2018-12-19T16:07:46.214Z,5.10
2018-12-19T16:10:16.962Z,5.10
2018-12-19T16:12:47.449Z,5.20
2018-12-19T16:15:18.027Z,5.10
2018-12-19T16:17:48.553Z,5.20
2018-12-19T16:20:19.090Z,5.10
2018-12-19T16:22:49.711Z,5.20
2018-12-19T16:25:20.312Z,5.20
2018-12-19T16:27:50.906Z,5.20
2018-12-19T16:30:21.495Z,5.20
2018-12-19T16:32:53.228Z,5.20
2018-12-19T16:35:23.782Z,5.20
2018-12-19T16:37:54.395Z,5.10
2018-12-19T16:40:24.923Z,5.20
2018-12-19T16:45:29.534Z,5.20
2018-12-19T16:48:00.086Z,5.20
2018-12-19T16:50:30.785Z,5.20
2018-12-19T16:53:01.412Z,5.20
2018-12-19T16:55:32.079Z,5.20
2018-12-19T16:58:02.706Z,5.20
2018-12-19T17:03:08.530Z,5.20
2018-12-19T17:05:39.095Z,5.20
2018-12-19T17:08:09.744Z,5.10
2018-12-19T17:10:40.374Z,5.10
2018-12-19T17:13:11.199Z,5.10
2018-12-19T17:20:35.984Z,5.10
2018-12-19T17:23:07.631Z,5.10
2018-12-19T17:25:38.507Z,5.10
2018-12-19T17:28:09.591Z,5.10
2018-12-19T17:30:40.190Z,5.10
2018-12-19T17:33:11.228Z,5.10
2018-12-19T17:35:46.117Z,5.10
2018-12-19T17:38:17.733Z,5.10
2018-12-19T17:40:48.521Z,5.10
2018-12-19T17:43:19.478Z,5.10
2018-12-19T17:45:50.858Z,5.10
2018-12-19T17:48:21.594Z,5.10
2018-12-19T17:50:52.495Z,5.00
2018-12-19T17:53:23.428Z,5.00
2018-12-19T17:55:54.341Z,4.90
2018-12-19T17:58:25.384Z,4.90
2018-12-19T18:00:56.271Z,4.90
2018-12-19T18:03:27.841Z,5.00
2018-12-19T18:05:59.841Z,5.00
2018-12-19T18:08:31.155Z,5.00
2018-12-19T18:11:02.484Z,4.90
2018-12-19T18:13:34.245Z,4.90
2018-12-19T18:16:05.497Z,4.90
2018-12-19T18:18:40.316Z,4.80
2018-12-19T18:21:11.815Z,4.90
2018-12-19T18:23:43.275Z,4.80
2018-12-19T18:26:14.869Z,4.80
2018-12-19T18:28:46.822Z,4.90
2018-12-19T18:31:22.011Z,4.90
2018-12-19T18:33:54.607Z,4.90
2018-12-19T18:36:27.481Z,5.10
2018-12-19T18:39:00.886Z,5.00
2018-12-19T18:41:35.571Z,5.00
2018-12-19T18:44:08.501Z,5.00
2018-12-19T18:46:53.872Z,5.00
2018-12-19T18:49:27.318Z,5.00
2018-12-19T18:51:59.835Z,5.00
2018-12-19T18:54:32.412Z,4.90
2018-12-19T18:57:05.878Z,4.90
2018-12-19T18:59:38.641Z,4.90
2018-12-19T19:02:11.042Z,4.90
2018-12-19T19:04:43.785Z,4.90
2018-12-19T19:07:15.941Z,4.90
2018-12-19T19:09:49.054Z,4.90
2018-12-19T19:12:21.703Z,5.00
2018-12-19T19:14:56.371Z,5.00
2018-12-19T19:17:28.746Z,5.00
2018-12-19T19:20:01.040Z,4.90
2018-12-19T19:22:33.522Z,4.90
2018-12-19T19:25:06.084Z,4.90
2018-12-19T19:27:41.245Z,4.90
2018-12-19T19:30:13.955Z,4.90
2018-12-19T19:32:46.052Z,4.90
2018-12-19T19:35:18.742Z,4.90
2018-12-19T19:37:51.504Z,4.90
2018-12-19T19:40:23.194Z,4.90
2018-12-19T19:42:55.056Z,4.90
2018-12-19T19:45:26.603Z,4.90
2018-12-19T19:47:59.222Z,4.90
2018-12-19T19:50:32.561Z,5.00
2018-12-19T19:53:04.620Z,4.90
2018-12-19T19:55:36.771Z,4.90
2018-12-19T19:58:08.740Z,4.90
2018-12-19T20:00:42.123Z,4.90
2018-12-19T20:03:14.520Z,4.90
2018-12-19T20:05:46.385Z,4.90
2018-12-19T20:10:53.282Z,4.90
2018-12-19T20:13:25.964Z,4.90
2018-12-19T20:15:59.558Z,4.80
2018-12-19T20:18:32.161Z,4.80
2018-12-19T20:21:04.643Z,4.80
2018-12-19T20:23:36.921Z,4.80
2018-12-19T20:26:09.007Z,4.80
2018-12-19T20:28:40.631Z,4.80
2018-12-19T20:31:12.838Z,4.80
2018-12-19T20:33:44.883Z,4.80
2018-12-19T20:36:15.808Z,4.80
2018-12-19T20:38:46.578Z,4.80
2018-12-19T20:41:17.481Z,4.70
2018-12-19T20:43:48.136Z,4.80
2018-12-19T20:46:19.002Z,4.80
2018-12-19T20:48:49.826Z,4.80
2018-12-19T20:51:20.891Z,4.70
2018-12-19T20:53:51.689Z,4.80
2018-12-19T20:56:24.473Z,4.80
2018-12-19T20:58:55.550Z,4.80
2018-12-19T21:01:26.345Z,4.80
2018-12-19T21:03:57.285Z,4.70
2018-12-19T21:06:29.393Z,4.80
2018-12-19T21:09:00.215Z,4.70
2018-12-19T21:11:31.308Z,4.80
2018-12-19T21:14:01.757Z,5.50
2018-12-19T21:16:37.655Z,4.80
2018-12-19T21:19:08.873Z,4.80
2018-12-19T21:21:39.816Z,4.80
2018-12-19T21:24:10.707Z,4.70
2018-12-19T21:26:41.240Z,4.70
2018-12-19T21:29:12.106Z,4.70
2018-12-19T21:31:42.936Z,4.70
2018-12-19T21:34:13.441Z,5.00
2018-12-19T21:36:44.509Z,4.90
2018-12-19T21:39:15.400Z,4.70
2018-12-19T21:41:46.207Z,4.70
2018-12-19T21:44:16.830Z,4.60
2018-12-19T21:46:47.422Z,4.50
2018-12-19T21:49:18.145Z,4.50
2018-12-19T21:51:48.684Z,4.50
2018-12-19T21:54:19.161Z,4.40
2018-12-19T21:56:49.871Z,4.40
2018-12-19T21:59:20.514Z,4.40
2018-12-19T22:01:51.147Z,4.40
2018-12-19T22:04:21.631Z,4.40
2018-12-19T22:06:52.089Z,4.30
2018-12-19T22:09:22.780Z,4.30
2018-12-19T22:11:53.289Z,4.30
2018-12-19T22:14:23.790Z,4.30
2018-12-19T22:16:59.212Z,4.30
2018-12-19T22:19:29.931Z,4.30
2018-12-19T22:22:00.318Z,4.30
2018-12-19T22:24:31.010Z,4.30
2018-12-19T22:27:01.647Z,4.40
2018-12-19T22:29:32.110Z,4.60
2018-12-19T22:32:02.732Z,4.80
2018-12-19T22:34:33.461Z,4.80
2018-12-19T22:37:03.887Z,4.70
2018-12-19T22:39:34.444Z,4.80
2018-12-19T22:42:05.164Z,4.90
2018-12-19T22:44:35.654Z,4.80
2018-12-19T22:47:06.253Z,4.70
2018-12-19T22:49:36.786Z,4.60
2018-12-19T22:52:07.178Z,4.50
2018-12-19T22:54:37.761Z,4.40
2018-12-19T22:57:08.169Z,4.40
2018-12-19T22:59:38.814Z,4.30
2018-12-19T23:02:14.331Z,4.30
2018-12-19T23:04:44.710Z,4.30
2018-12-19T23:07:15.255Z,4.30
2018-12-19T23:09:45.622Z,4.30
2018-12-19T23:12:16.110Z,4.20
2018-12-19T23:14:48.307Z,4.10
2018-12-19T23:17:30.148Z,4.10
2018-12-19T23:20:06.588Z,4.10
2018-12-19T23:22:43.392Z,4.00
2018-12-19T23:25:19.664Z,4.00
2018-12-19T23:27:50.727Z,4.00
2018-12-19T23:30:21.455Z,4.10
2018-12-19T23:32:51.794Z,4.20
2018-12-19T23:35:22.215Z,4.20
2018-12-19T23:37:52.724Z,4.10
2018-12-19T23:40:24.033Z,4.20
2018-12-19T23:42:54.333Z,4.20
2018-12-19T23:45:28.271Z,4.10
2018-12-19T23:47:59.019Z,4.20
2018-12-19T23:50:29.510Z,4.20
2018-12-19T23:53:00.000Z,4.20
2018-12-19T23:55:30.333Z,4.20
2018-12-19T23:58:00.788Z,4.20
